sensor_id;sensor_type;location;lat;lon;timestamp;P1;durP1;ratioP1;P2;durP2;ratioP2
22060;SDS011;11194;48.092;-1.382;2022-12-11T00:01:23;62.90;;;33.20;;
22060;SDS011;11194;48.092;-1.382;2022-12-11T00:03:49;58.63;;;29.30;;
22060;SDS011;11194;48.092;-1.382;2022-12-11T00:06:16;60.75;;;33.15;;
22060;SDS011;11194;48.092;-1.382;2022-12-11T00:08:43;55.65;;;30.58;;
22060;SDS011;11194;48.092;-1.382;2022-12-11T00:11:13;49.97;;;23.35;;
22060;SDS011;11194;48.092;-1.382;2022-12-11T00:13:40;58.20;;;35.05;;
22060;SDS011;11194;48.092;-1.382;2022-12-11T00:16:06;55.75;;;31.40;;
22060;SDS011;11194;48.092;-1.382;2022-12-11T00:18:33;58.72;;;28.45;;
22060;SDS011;11194;48.092;-1.382;2022-12-11T00:20:59;60.95;;;35.05;;
22060;SDS011;11194;48.092;-1.382;2022-12-11T00:23:26;59.40;;;32.42;;
22060;SDS011;11194;48.092;-1.382;2022-12-11T00:25:52;60.03;;;30.23;;
22060;SDS011;11194;48.092;-1.382;2022-12-11T00:28:18;64.07;;;34.13;;
22060;SDS011;11194;48.092;-1.382;2022-12-11T00:30:44;63.97;;;37.05;;
22060;SDS011;11194;48.092;-1.382;2022-12-11T00:33:11;62.78;;;34.80;;
22060;SDS011;11194;48.092;-1.382;2022-12-11T00:35:38;64.40;;;35.95;;
22060;SDS011;11194;48.092;-1.382;2022-12-11T00:38:04;49.15;;;27.88;;
22060;SDS011;11194;48.092;-1.382;2022-12-11T00:40:34;59.28;;;31.13;;
22060;SDS011;11194;48.092;-1.382;2022-12-11T00:43:03;52.08;;;27.13;;
22060;SDS011;11194;48.092;-1.382;2022-12-11T00:45:29;41.65;;;20.73;;
22060;SDS011;11194;48.092;-1.382;2022-12-11T00:47:55;55.67;;;33.53;;
22060;SDS011;11194;48.092;-1.382;2022-12-11T00:50:21;65.63;;;34.15;;
22060;SDS011;11194;48.092;-1.382;2022-12-11T00:52:47;60.78;;;32.92;;
22060;SDS011;11194;48.092;-1.382;2022-12-11T00:55:13;50.58;;;27.02;;
22060;SDS011;11194;48.092;-1.382;2022-12-11T00:57:39;62.28;;;35.50;;
22060;SDS011;11194;48.092;-1.382;2022-12-11T01:00:06;63.58;;;34.08;;
22060;SDS011;11194;48.092;-1.382;2022-12-11T01:02:32;60.70;;;32.88;;
22060;SDS011;11194;48.092;-1.382;2022-12-11T01:04:58;61.78;;;32.08;;
22060;SDS011;11194;48.092;-1.382;2022-12-11T01:07:25;59.70;;;31.98;;
22060;SDS011;11194;48.092;-1.382;2022-12-11T01:09:51;64.05;;;35.53;;
22060;SDS011;11194;48.092;-1.382;2022-12-11T01:12:35;68.50;;;36.55;;
22060;SDS011;11194;48.092;-1.382;2022-12-11T01:15:02;70.07;;;36.97;;
22060;SDS011;11194;48.092;-1.382;2022-12-11T01:17:28;61.65;;;32.17;;
22060;SDS011;11194;48.092;-1.382;2022-12-11T01:19:54;62.92;;;36.20;;
22060;SDS011;11194;48.092;-1.382;2022-12-11T01:22:20;62.47;;;36.00;;
22060;SDS011;11194;48.092;-1.382;2022-12-11T01:24:46;68.80;;;36.42;;
22060;SDS011;11194;48.092;-1.382;2022-12-11T01:27:12;64.25;;;34.55;;
22060;SDS011;11194;48.092;-1.382;2022-12-11T01:29:38;62.95;;;32.72;;
22060;SDS011;11194;48.092;-1.382;2022-12-11T01:32:04;62.97;;;34.22;;
22060;SDS011;11194;48.092;-1.382;2022-12-11T01:34:31;64.80;;;33.63;;
22060;SDS011;11194;48.092;-1.382;2022-12-11T01:36:57;57.72;;;34.08;;
22060;SDS011;11194;48.092;-1.382;2022-12-11T01:39:23;65.78;;;35.00;;
22060;SDS011;11194;48.092;-1.382;2022-12-11T01:41:49;65.60;;;34.17;;
22060;SDS011;11194;48.092;-1.382;2022-12-11T01:46:42;53.25;;;28.40;;
22060;SDS011;11194;48.092;-1.382;2022-12-11T01:49:10;61.95;;;31.02;;
22060;SDS011;11194;48.092;-1.382;2022-12-11T01:51:41;65.63;;;34.03;;
22060;SDS011;11194;48.092;-1.382;2022-12-11T01:54:11;65.70;;;34.50;;
22060;SDS011;11194;48.092;-1.382;2022-12-11T01:56:38;67.25;;;31.83;;
22060;SDS011;11194;48.092;-1.382;2022-12-11T01:59:06;65.97;;;34.55;;
22060;SDS011;11194;48.092;-1.382;2022-12-11T02:01:39;67.97;;;35.33;;
22060;SDS011;11194;48.092;-1.382;2022-12-11T02:04:07;62.53;;;32.55;;
22060;SDS011;11194;48.092;-1.382;2022-12-11T02:06:37;68.55;;;35.60;;
22060;SDS011;11194;48.092;-1.382;2022-12-11T02:09:05;63.83;;;33.85;;
22060;SDS011;11194;48.092;-1.382;2022-12-11T02:11:42;39.47;;;19.95;;
22060;SDS011;11194;48.092;-1.382;2022-12-11T02:22:20;58.88;;;26.08;;
22060;SDS011;11194;48.092;-1.382;2022-12-11T02:27:17;52.80;;;25.30;;
22060;SDS011;11194;48.092;-1.382;2022-12-11T02:29:47;55.28;;;30.30;;
22060;SDS011;11194;48.092;-1.382;2022-12-11T05:02:45;49.28;;;22.90;;
22060;SDS011;11194;48.092;-1.382;2022-12-11T05:05:11;51.38;;;22.45;;
22060;SDS011;11194;48.092;-1.382;2022-12-11T05:07:38;53.55;;;24.23;;
22060;SDS011;11194;48.092;-1.382;2022-12-11T05:10:05;54.00;;;22.60;;
22060;SDS011;11194;48.092;-1.382;2022-12-11T05:12:31;53.63;;;24.25;;
22060;SDS011;11194;48.092;-1.382;2022-12-11T05:14:58;47.08;;;21.73;;
22060;SDS011;11194;48.092;-1.382;2022-12-11T05:17:24;50.58;;;22.80;;
22060;SDS011;11194;48.092;-1.382;2022-12-11T05:19:50;52.25;;;24.77;;
22060;SDS011;11194;48.092;-1.382;2022-12-11T05:22:17;35.20;;;17.55;;
22060;SDS011;11194;48.092;-1.382;2022-12-11T05:24:43;37.95;;;17.92;;
22060;SDS011;11194;48.092;-1.382;2022-12-11T05:27:10;51.33;;;23.88;;
22060;SDS011;11194;48.092;-1.382;2022-12-11T05:29:37;49.28;;;23.02;;
22060;SDS011;11194;48.092;-1.382;2022-12-11T05:32:03;34.78;;;15.73;;
22060;SDS011;11194;48.092;-1.382;2022-12-11T05:34:29;49.40;;;21.95;;
22060;SDS011;11194;48.092;-1.382;2022-12-11T05:36:55;42.85;;;17.50;;
22060;SDS011;11194;48.092;-1.382;2022-12-11T05:39:21;48.63;;;23.67;;
22060;SDS011;11194;48.092;-1.382;2022-12-11T05:41:47;43.38;;;22.02;;
22060;SDS011;11194;48.092;-1.382;2022-12-11T05:44:13;30.50;;;14.05;;
22060;SDS011;11194;48.092;-1.382;2022-12-11T05:46:39;31.52;;;14.85;;
22060;SDS011;11194;48.092;-1.382;2022-12-11T05:49:06;47.05;;;22.63;;
22060;SDS011;11194;48.092;-1.382;2022-12-11T05:51:32;47.50;;;22.25;;
22060;SDS011;11194;48.092;-1.382;2022-12-11T05:53:59;42.35;;;20.90;;
22060;SDS011;11194;48.092;-1.382;2022-12-11T05:56:29;45.85;;;21.40;;
22060;SDS011;11194;48.092;-1.382;2022-12-11T05:58:56;40.22;;;18.27;;
22060;SDS011;11194;48.092;-1.382;2022-12-11T06:01:24;33.70;;;15.00;;
22060;SDS011;11194;48.092;-1.382;2022-12-11T06:03:52;32.67;;;14.60;;
22060;SDS011;11194;48.092;-1.382;2022-12-11T06:06:18;41.00;;;20.50;;
22060;SDS011;11194;48.092;-1.382;2022-12-11T06:08:45;33.42;;;14.98;;
22060;SDS011;11194;48.092;-1.382;2022-12-11T06:11:12;28.75;;;12.38;;
22060;SDS011;11194;48.092;-1.382;2022-12-11T06:13:38;36.30;;;15.00;;
22060;SDS011;11194;48.092;-1.382;2022-12-11T06:16:05;49.70;;;21.60;;
22060;SDS011;11194;48.092;-1.382;2022-12-11T06:18:38;34.22;;;15.77;;
22060;SDS011;11194;48.092;-1.382;2022-12-11T06:21:14;41.45;;;19.67;;
22060;SDS011;11194;48.092;-1.382;2022-12-11T06:23:41;45.53;;;21.00;;
22060;SDS011;11194;48.092;-1.382;2022-12-11T06:26:08;31.48;;;14.00;;
22060;SDS011;11194;48.092;-1.382;2022-12-11T06:28:35;54.38;;;23.08;;
22060;SDS011;11194;48.092;-1.382;2022-12-11T06:31:01;60.30;;;24.00;;
22060;SDS011;11194;48.092;-1.382;2022-12-11T06:33:28;65.25;;;27.23;;
22060;SDS011;11194;48.092;-1.382;2022-12-11T06:35:54;57.88;;;27.70;;
22060;SDS011;11194;48.092;-1.382;2022-12-11T06:38:21;43.70;;;19.85;;
22060;SDS011;11194;48.092;-1.382;2022-12-11T06:40:54;65.72;;;27.58;;
22060;SDS011;11194;48.092;-1.382;2022-12-11T06:43:21;58.53;;;24.23;;
22060;SDS011;11194;48.092;-1.382;2022-12-11T06:45:47;69.82;;;28.40;;
22060;SDS011;11194;48.092;-1.382;2022-12-11T06:48:13;64.93;;;25.83;;
22060;SDS011;11194;48.092;-1.382;2022-12-11T06:50:39;55.95;;;24.08;;
22060;SDS011;11194;48.092;-1.382;2022-12-11T06:53:05;54.28;;;25.45;;
22060;SDS011;11194;48.092;-1.382;2022-12-11T06:55:35;57.83;;;27.60;;
22060;SDS011;11194;48.092;-1.382;2022-12-11T06:58:01;32.58;;;14.48;;
22060;SDS011;11194;48.092;-1.382;2022-12-11T07:00:27;51.95;;;24.23;;
22060;SDS011;11194;48.092;-1.382;2022-12-11T07:02:53;56.85;;;24.73;;
22060;SDS011;11194;48.092;-1.382;2022-12-11T07:05:19;32.85;;;14.27;;
22060;SDS011;11194;48.092;-1.382;2022-12-11T07:07:45;55.50;;;26.35;;
22060;SDS011;11194;48.092;-1.382;2022-12-11T07:10:11;60.45;;;26.80;;
22060;SDS011;11194;48.092;-1.382;2022-12-11T07:12:38;32.85;;;15.27;;
22060;SDS011;11194;48.092;-1.382;2022-12-11T07:15:04;48.80;;;22.38;;
22060;SDS011;11194;48.092;-1.382;2022-12-11T07:17:31;45.42;;;19.92;;
22060;SDS011;11194;48.092;-1.382;2022-12-11T07:19:57;49.30;;;24.83;;
22060;SDS011;11194;48.092;-1.382;2022-12-11T07:22:23;59.03;;;24.92;;
22060;SDS011;11194;48.092;-1.382;2022-12-11T07:24:49;50.50;;;24.65;;
22060;SDS011;11194;48.092;-1.382;2022-12-11T07:27:15;50.92;;;24.40;;
22060;SDS011;11194;48.092;-1.382;2022-12-11T07:29:41;54.03;;;24.88;;
22060;SDS011;11194;48.092;-1.382;2022-12-11T07:32:09;52.00;;;23.23;;
22060;SDS011;11194;48.092;-1.382;2022-12-11T07:34:35;54.00;;;25.30;;
22060;SDS011;11194;48.092;-1.382;2022-12-11T07:37:01;49.75;;;22.23;;
22060;SDS011;11194;48.092;-1.382;2022-12-11T07:39:27;46.75;;;21.70;;
22060;SDS011;11194;48.092;-1.382;2022-12-11T07:41:53;49.60;;;23.85;;
22060;SDS011;11194;48.092;-1.382;2022-12-11T07:44:19;56.30;;;24.33;;
22060;SDS011;11194;48.092;-1.382;2022-12-11T07:46:45;50.47;;;22.73;;
22060;SDS011;11194;48.092;-1.382;2022-12-11T07:49:11;54.55;;;24.63;;
22060;SDS011;11194;48.092;-1.382;2022-12-11T07:51:37;47.67;;;21.67;;
22060;SDS011;11194;48.092;-1.382;2022-12-11T07:54:09;28.35;;;13.32;;
22060;SDS011;11194;48.092;-1.382;2022-12-11T07:56:37;43.60;;;18.20;;
22060;SDS011;11194;48.092;-1.382;2022-12-11T07:59:03;53.83;;;25.23;;
22060;SDS011;11194;48.092;-1.382;2022-12-11T08:01:33;52.72;;;24.77;;
22060;SDS011;11194;48.092;-1.382;2022-12-11T08:04:03;55.33;;;24.23;;
22060;SDS011;11194;48.092;-1.382;2022-12-11T08:06:30;55.22;;;25.58;;
22060;SDS011;11194;48.092;-1.382;2022-12-11T08:08:57;61.85;;;26.33;;
22060;SDS011;11194;48.092;-1.382;2022-12-11T08:11:23;60.15;;;25.83;;
22060;SDS011;11194;48.092;-1.382;2022-12-11T08:13:49;54.15;;;24.05;;
22060;SDS011;11194;48.092;-1.382;2022-12-11T08:16:16;54.42;;;25.17;;
22060;SDS011;11194;48.092;-1.382;2022-12-11T08:18:42;55.13;;;24.30;;
22060;SDS011;11194;48.092;-1.382;2022-12-11T08:21:16;63.45;;;25.55;;
22060;SDS011;11194;48.092;-1.382;2022-12-11T08:23:43;59.90;;;26.65;;
22060;SDS011;11194;48.092;-1.382;2022-12-11T08:26:13;58.78;;;26.42;;
22060;SDS011;11194;48.092;-1.382;2022-12-11T08:28:40;59.85;;;22.98;;
22060;SDS011;11194;48.092;-1.382;2022-12-11T08:31:07;61.67;;;26.95;;
22060;SDS011;11194;48.092;-1.382;2022-12-11T08:33:34;61.97;;;27.05;;
22060;SDS011;11194;48.092;-1.382;2022-12-11T08:36:07;61.60;;;26.02;;
22060;SDS011;11194;48.092;-1.382;2022-12-11T08:38:33;68.43;;;27.85;;
22060;SDS011;11194;48.092;-1.382;2022-12-11T08:41:07;63.95;;;27.25;;
22060;SDS011;11194;48.092;-1.382;2022-12-11T08:43:33;63.47;;;27.70;;
22060;SDS011;11194;48.092;-1.382;2022-12-11T08:45:59;61.25;;;27.70;;
22060;SDS011;11194;48.092;-1.382;2022-12-11T08:48:25;64.22;;;28.65;;
22060;SDS011;11194;48.092;-1.382;2022-12-11T08:50:51;67.45;;;29.25;;
22060;SDS011;11194;48.092;-1.382;2022-12-11T08:53:17;63.03;;;27.42;;
22060;SDS011;11194;48.092;-1.382;2022-12-11T08:55:43;64.72;;;28.65;;
22060;SDS011;11194;48.092;-1.382;2022-12-11T08:58:09;63.20;;;28.00;;
22060;SDS011;11194;48.092;-1.382;2022-12-11T09:00:36;66.18;;;28.13;;
22060;SDS011;11194;48.092;-1.382;2022-12-11T09:03:02;68.97;;;29.52;;
22060;SDS011;11194;48.092;-1.382;2022-12-11T09:05:28;65.07;;;28.90;;
22060;SDS011;11194;48.092;-1.382;2022-12-11T09:07:54;70.40;;;29.67;;
22060;SDS011;11194;48.092;-1.382;2022-12-11T09:10:20;69.32;;;29.42;;
22060;SDS011;11194;48.092;-1.382;2022-12-11T09:12:46;68.68;;;29.48;;
22060;SDS011;11194;48.092;-1.382;2022-12-11T09:15:12;66.03;;;28.88;;
22060;SDS011;11194;48.092;-1.382;2022-12-11T09:17:39;66.85;;;28.77;;
22060;SDS011;11194;48.092;-1.382;2022-12-11T09:20:05;62.28;;;28.75;;
22060;SDS011;11194;48.092;-1.382;2022-12-11T09:22:31;69.13;;;30.13;;
22060;SDS011;11194;48.092;-1.382;2022-12-11T09:24:58;69.38;;;29.52;;
22060;SDS011;11194;48.092;-1.382;2022-12-11T09:27:24;64.72;;;28.10;;
22060;SDS011;11194;48.092;-1.382;2022-12-11T09:29:50;66.25;;;29.42;;
22060;SDS011;11194;48.092;-1.382;2022-12-11T09:32:16;66.35;;;28.88;;
22060;SDS011;11194;48.092;-1.382;2022-12-11T09:34:42;67.45;;;28.40;;
22060;SDS011;11194;48.092;-1.382;2022-12-11T09:37:08;68.43;;;29.58;;
22060;SDS011;11194;48.092;-1.382;2022-12-11T09:39:34;62.60;;;27.67;;
22060;SDS011;11194;48.092;-1.382;2022-12-11T09:46:55;65.95;;;29.55;;
22060;SDS011;11194;48.092;-1.382;2022-12-11T09:49:41;64.07;;;28.98;;
22060;SDS011;11194;48.092;-1.382;2022-12-11T09:54:34;61.63;;;28.45;;
22060;SDS011;11194;48.092;-1.382;2022-12-11T10:08:02;60.15;;;28.67;;
22060;SDS011;11194;48.092;-1.382;2022-12-11T10:12:59;58.33;;;28.27;;
22060;SDS011;11194;48.092;-1.382;2022-12-11T10:15:39;62.22;;;28.92;;
22060;SDS011;11194;48.092;-1.382;2022-12-11T10:18:10;55.67;;;27.55;;
22060;SDS011;11194;48.092;-1.382;2022-12-11T10:20:38;62.22;;;28.10;;
22060;SDS011;11194;48.092;-1.382;2022-12-11T10:23:07;63.92;;;28.38;;
22060;SDS011;11194;48.092;-1.382;2022-12-11T10:25:40;61.10;;;28.05;;
22060;SDS011;11194;48.092;-1.382;2022-12-11T10:28:10;56.20;;;28.23;;
22060;SDS011;11194;48.092;-1.382;2022-12-11T10:30:38;60.90;;;29.13;;
22060;SDS011;11194;48.092;-1.382;2022-12-11T10:33:10;63.05;;;28.45;;
22060;SDS011;11194;48.092;-1.382;2022-12-11T10:38:24;62.50;;;28.83;;
22060;SDS011;11194;48.092;-1.382;2022-12-11T10:40:53;60.55;;;29.65;;
22060;SDS011;11194;48.092;-1.382;2022-12-11T10:43:42;63.10;;;28.58;;
22060;SDS011;11194;48.092;-1.382;2022-12-11T10:46:13;57.17;;;27.80;;
22060;SDS011;11194;48.092;-1.382;2022-12-11T10:48:47;59.05;;;28.77;;
22060;SDS011;11194;48.092;-1.382;2022-12-11T10:51:14;59.13;;;27.13;;
22060;SDS011;11194;48.092;-1.382;2022-12-11T10:53:41;52.17;;;26.55;;
22060;SDS011;11194;48.092;-1.382;2022-12-11T10:56:08;50.28;;;25.77;;
22060;SDS011;11194;48.092;-1.382;2022-12-11T10:58:36;57.15;;;28.50;;
22060;SDS011;11194;48.092;-1.382;2022-12-11T11:01:07;60.45;;;28.15;;
22060;SDS011;11194;48.092;-1.382;2022-12-11T11:03:34;56.55;;;26.52;;
22060;SDS011;11194;48.092;-1.382;2022-12-11T11:08:43;48.83;;;25.42;;
22060;SDS011;11194;48.092;-1.382;2022-12-11T11:13:42;54.00;;;25.60;;
22060;SDS011;11194;48.092;-1.382;2022-12-11T11:16:11;51.42;;;25.65;;
22060;SDS011;11194;48.092;-1.382;2022-12-11T11:18:47;51.72;;;26.42;;
22060;SDS011;11194;48.092;-1.382;2022-12-11T11:21:17;45.20;;;24.65;;
22060;SDS011;11194;48.092;-1.382;2022-12-11T11:23:43;51.20;;;25.20;;
22060;SDS011;11194;48.092;-1.382;2022-12-11T11:26:13;46.92;;;24.77;;
22060;SDS011;11194;48.092;-1.382;2022-12-11T11:28:40;44.30;;;24.05;;
22060;SDS011;11194;48.092;-1.382;2022-12-11T11:31:11;47.35;;;24.52;;
22060;SDS011;11194;48.092;-1.382;2022-12-11T11:33:44;37.67;;;18.98;;
22060;SDS011;11194;48.092;-1.382;2022-12-11T11:36:19;42.47;;;23.00;;
22060;SDS011;11194;48.092;-1.382;2022-12-11T11:38:48;44.70;;;25.05;;
22060;SDS011;11194;48.092;-1.382;2022-12-11T11:43:51;46.53;;;23.02;;
22060;SDS011;11194;48.092;-1.382;2022-12-11T11:46:19;45.38;;;24.15;;
22060;SDS011;11194;48.092;-1.382;2022-12-11T11:49:23;42.05;;;24.58;;
22060;SDS011;11194;48.092;-1.382;2022-12-11T11:51:49;39.78;;;22.67;;
22060;SDS011;11194;48.092;-1.382;2022-12-11T11:54:27;45.05;;;24.33;;
22060;SDS011;11194;48.092;-1.382;2022-12-11T11:56:55;41.85;;;23.05;;
22060;SDS011;11194;48.092;-1.382;2022-12-11T11:59:29;41.42;;;23.63;;
22060;SDS011;11194;48.092;-1.382;2022-12-11T12:01:56;45.90;;;23.75;;
22060;SDS011;11194;48.092;-1.382;2022-12-11T12:04:23;46.53;;;23.02;;
22060;SDS011;11194;48.092;-1.382;2022-12-11T12:07:08;37.35;;;20.17;;
22060;SDS011;11194;48.092;-1.382;2022-12-11T12:15:42;40.85;;;22.63;;
22060;SDS011;11194;48.092;-1.382;2022-12-11T12:20:27;40.50;;;23.10;;
22060;SDS011;11194;48.092;-1.382;2022-12-11T12:22:57;43.72;;;22.63;;
22060;SDS011;11194;48.092;-1.382;2022-12-11T12:25:36;41.08;;;21.58;;
22060;SDS011;11194;48.092;-1.382;2022-12-11T12:28:15;41.70;;;20.70;;
22060;SDS011;11194;48.092;-1.382;2022-12-11T12:36:16;36.83;;;20.63;;
22060;SDS011;11194;48.092;-1.382;2022-12-11T12:41:15;39.47;;;21.80;;
22060;SDS011;11194;48.092;-1.382;2022-12-11T12:44:05;36.88;;;20.38;;
22060;SDS011;11194;48.092;-1.382;2022-12-11T12:49:15;34.08;;;20.25;;
22060;SDS011;11194;48.092;-1.382;2022-12-11T12:51:41;34.95;;;19.90;;
22060;SDS011;11194;48.092;-1.382;2022-12-11T12:54:09;30.27;;;18.40;;
22060;SDS011;11194;48.092;-1.382;2022-12-11T12:56:37;32.25;;;19.27;;
22060;SDS011;11194;48.092;-1.382;2022-12-11T12:59:06;33.20;;;19.80;;
22060;SDS011;11194;48.092;-1.382;2022-12-11T13:01:45;33.08;;;18.80;;
22060;SDS011;11194;48.092;-1.382;2022-12-11T13:04:22;33.67;;;21.05;;
22060;SDS011;11194;48.092;-1.382;2022-12-11T13:06:50;34.58;;;19.50;;
22060;SDS011;11194;48.092;-1.382;2022-12-11T13:09:24;35.75;;;19.50;;
22060;SDS011;11194;48.092;-1.382;2022-12-11T13:11:51;34.20;;;19.80;;
22060;SDS011;11194;48.092;-1.382;2022-12-11T13:16:49;31.67;;;19.58;;
22060;SDS011;11194;48.092;-1.382;2022-12-11T13:19:25;33.15;;;19.83;;
22060;SDS011;11194;48.092;-1.382;2022-12-11T13:21:55;32.58;;;18.83;;
22060;SDS011;11194;48.092;-1.382;2022-12-11T13:26:48;29.52;;;18.88;;
22060;SDS011;11194;48.092;-1.382;2022-12-11T13:31:57;30.40;;;17.83;;
22060;SDS011;11194;48.092;-1.382;2022-12-11T13:34:23;29.95;;;17.92;;
22060;SDS011;11194;48.092;-1.382;2022-12-11T13:36:52;29.33;;;17.27;;
22060;SDS011;11194;48.092;-1.382;2022-12-11T13:41:46;28.52;;;16.95;;
22060;SDS011;11194;48.092;-1.382;2022-12-11T13:47:11;29.48;;;17.38;;
22060;SDS011;11194;48.092;-1.382;2022-12-11T13:49:39;30.60;;;17.30;;
22060;SDS011;11194;48.092;-1.382;2022-12-11T13:52:14;31.30;;;18.50;;
22060;SDS011;11194;48.092;-1.382;2022-12-11T13:54:45;31.45;;;18.88;;
22060;SDS011;11194;48.092;-1.382;2022-12-11T13:57:16;26.25;;;16.27;;
22060;SDS011;11194;48.092;-1.382;2022-12-11T13:59:52;25.67;;;15.43;;
22060;SDS011;11194;48.092;-1.382;2022-12-11T14:02:20;26.00;;;15.77;;
22060;SDS011;11194;48.092;-1.382;2022-12-11T14:04:47;27.77;;;15.98;;
22060;SDS011;11194;48.092;-1.382;2022-12-11T14:07:14;24.10;;;14.57;;
22060;SDS011;11194;48.092;-1.382;2022-12-11T14:09:43;21.95;;;13.27;;
22060;SDS011;11194;48.092;-1.382;2022-12-11T14:12:17;22.02;;;14.00;;
22060;SDS011;11194;48.092;-1.382;2022-12-11T14:14:46;19.17;;;13.05;;
22060;SDS011;11194;48.092;-1.382;2022-12-11T14:17:14;21.60;;;13.35;;
22060;SDS011;11194;48.092;-1.382;2022-12-11T14:19:45;23.60;;;13.52;;
22060;SDS011;11194;48.092;-1.382;2022-12-11T14:22:19;22.13;;;13.40;;
22060;SDS011;11194;48.092;-1.382;2022-12-11T14:24:49;23.73;;;15.05;;
22060;SDS011;11194;48.092;-1.382;2022-12-11T14:27:16;24.95;;;15.20;;
22060;SDS011;11194;48.092;-1.382;2022-12-11T14:29:45;25.20;;;15.00;;
22060;SDS011;11194;48.092;-1.382;2022-12-11T14:32:15;24.70;;;14.70;;
22060;SDS011;11194;48.092;-1.382;2022-12-11T14:34:43;23.65;;;15.15;;
22060;SDS011;11194;48.092;-1.382;2022-12-11T14:37:10;26.50;;;15.27;;
22060;SDS011;11194;48.092;-1.382;2022-12-11T14:42:18;23.90;;;15.25;;
22060;SDS011;11194;48.092;-1.382;2022-12-11T14:45:06;26.60;;;15.80;;
22060;SDS011;11194;48.092;-1.382;2022-12-11T14:47:38;27.13;;;16.08;;
22060;SDS011;11194;48.092;-1.382;2022-12-11T14:52:32;29.60;;;18.02;;
22060;SDS011;11194;48.092;-1.382;2022-12-11T14:55:43;27.58;;;16.90;;
22060;SDS011;11194;48.092;-1.382;2022-12-11T14:57:51;29.48;;;16.50;;
22060;SDS011;11194;48.092;-1.382;2022-12-11T15:00:20;28.27;;;16.05;;
22060;SDS011;11194;48.092;-1.382;2022-12-11T15:02:55;29.27;;;17.23;;
22060;SDS011;11194;48.092;-1.382;2022-12-11T15:05:21;26.95;;;17.00;;
22060;SDS011;11194;48.092;-1.382;2022-12-11T15:10:34;29.00;;;16.52;;
22060;SDS011;11194;48.092;-1.382;2022-12-11T15:13:02;30.00;;;17.75;;
22060;SDS011;11194;48.092;-1.382;2022-12-11T15:15:29;29.75;;;18.10;;
22060;SDS011;11194;48.092;-1.382;2022-12-11T15:17:57;31.13;;;18.50;;
22060;SDS011;11194;48.092;-1.382;2022-12-11T15:20:26;32.70;;;17.90;;
22060;SDS011;11194;48.092;-1.382;2022-12-11T15:22:53;30.27;;;18.63;;
22060;SDS011;11194;48.092;-1.382;2022-12-11T15:25:20;31.52;;;19.52;;
22060;SDS011;11194;48.092;-1.382;2022-12-11T15:27:50;27.98;;;17.35;;
22060;SDS011;11194;48.092;-1.382;2022-12-11T15:35:36;34.28;;;20.00;;
22060;SDS011;11194;48.092;-1.382;2022-12-11T15:38:03;37.67;;;20.27;;
22060;SDS011;11194;48.092;-1.382;2022-12-11T15:40:29;33.00;;;18.63;;
22060;SDS011;11194;48.092;-1.382;2022-12-11T15:42:56;31.42;;;17.67;;
22060;SDS011;11194;48.092;-1.382;2022-12-11T15:45:24;31.42;;;17.02;;
22060;SDS011;11194;48.092;-1.382;2022-12-11T15:47:52;34.65;;;19.38;;
22060;SDS011;11194;48.092;-1.382;2022-12-11T15:50:19;30.08;;;17.00;;
22060;SDS011;11194;48.092;-1.382;2022-12-11T15:52:46;28.17;;;16.83;;
22060;SDS011;11194;48.092;-1.382;2022-12-11T15:55:13;31.95;;;18.17;;
22060;SDS011;11194;48.092;-1.382;2022-12-11T15:57:49;32.28;;;18.60;;
22060;SDS011;11194;48.092;-1.382;2022-12-11T16:00:17;30.98;;;17.60;;
22060;SDS011;11194;48.092;-1.382;2022-12-11T16:02:44;33.78;;;19.75;;
22060;SDS011;11194;48.092;-1.382;2022-12-11T16:05:10;35.72;;;20.63;;
22060;SDS011;11194;48.092;-1.382;2022-12-11T16:07:36;33.35;;;19.35;;
22060;SDS011;11194;48.092;-1.382;2022-12-11T16:10:03;31.65;;;18.95;;
22060;SDS011;11194;48.092;-1.382;2022-12-11T16:12:30;32.03;;;19.15;;
22060;SDS011;11194;48.092;-1.382;2022-12-11T16:14:56;31.55;;;19.33;;
22060;SDS011;11194;48.092;-1.382;2022-12-11T16:17:22;31.63;;;19.08;;
22060;SDS011;11194;48.092;-1.382;2022-12-11T16:19:48;30.85;;;19.25;;
22060;SDS011;11194;48.092;-1.382;2022-12-11T16:22:15;33.90;;;18.88;;
22060;SDS011;11194;48.092;-1.382;2022-12-11T16:24:41;32.42;;;19.73;;
22060;SDS011;11194;48.092;-1.382;2022-12-11T16:27:08;37.05;;;19.92;;
22060;SDS011;11194;48.092;-1.382;2022-12-11T16:29:38;34.65;;;20.33;;
22060;SDS011;11194;48.092;-1.382;2022-12-11T16:32:05;40.00;;;22.88;;
22060;SDS011;11194;48.092;-1.382;2022-12-11T16:34:32;36.95;;;22.55;;
22060;SDS011;11194;48.092;-1.382;2022-12-11T16:36:58;34.70;;;21.00;;
22060;SDS011;11194;48.092;-1.382;2022-12-11T16:39:25;38.13;;;22.25;;
22060;SDS011;11194;48.092;-1.382;2022-12-11T16:41:51;35.05;;;19.73;;
22060;SDS011;11194;48.092;-1.382;2022-12-11T16:44:18;34.92;;;21.15;;
22060;SDS011;11194;48.092;-1.382;2022-12-11T16:46:45;38.78;;;22.10;;
22060;SDS011;11194;48.092;-1.382;2022-12-11T16:49:11;34.05;;;20.80;;
22060;SDS011;11194;48.092;-1.382;2022-12-11T16:51:37;37.33;;;21.30;;
22060;SDS011;11194;48.092;-1.382;2022-12-11T16:54:03;35.28;;;21.25;;
22060;SDS011;11194;48.092;-1.382;2022-12-11T16:56:29;37.17;;;21.85;;
22060;SDS011;11194;48.092;-1.382;2022-12-11T16:58:55;37.45;;;20.85;;
22060;SDS011;11194;48.092;-1.382;2022-12-11T17:01:22;34.20;;;21.23;;
22060;SDS011;11194;48.092;-1.382;2022-12-11T17:03:48;38.47;;;22.85;;
22060;SDS011;11194;48.092;-1.382;2022-12-11T17:06:15;37.90;;;21.83;;
22060;SDS011;11194;48.092;-1.382;2022-12-11T17:08:42;36.78;;;21.08;;
22060;SDS011;11194;48.092;-1.382;2022-12-11T17:11:10;36.92;;;21.10;;
22060;SDS011;11194;48.092;-1.382;2022-12-11T17:13:36;37.10;;;21.45;;
22060;SDS011;11194;48.092;-1.382;2022-12-11T17:16:07;38.35;;;21.88;;
22060;SDS011;11194;48.092;-1.382;2022-12-11T17:18:33;38.83;;;21.73;;
22060;SDS011;11194;48.092;-1.382;2022-12-11T17:21:03;38.58;;;21.15;;
22060;SDS011;11194;48.092;-1.382;2022-12-11T17:23:30;37.42;;;21.70;;
22060;SDS011;11194;48.092;-1.382;2022-12-11T17:25:56;38.42;;;22.55;;
22060;SDS011;11194;48.092;-1.382;2022-12-11T17:28:22;39.28;;;21.60;;
22060;SDS011;11194;48.092;-1.382;2022-12-11T17:30:48;44.33;;;23.05;;
22060;SDS011;11194;48.092;-1.382;2022-12-11T17:33:16;41.03;;;22.75;;
22060;SDS011;11194;48.092;-1.382;2022-12-11T17:35:42;42.63;;;24.63;;
22060;SDS011;11194;48.092;-1.382;2022-12-11T17:38:08;42.85;;;24.15;;
22060;SDS011;11194;48.092;-1.382;2022-12-11T17:40:37;43.70;;;22.95;;
22060;SDS011;11194;48.092;-1.382;2022-12-11T17:43:04;41.35;;;24.38;;
22060;SDS011;11194;48.092;-1.382;2022-12-11T17:45:33;45.42;;;25.25;;
22060;SDS011;11194;48.092;-1.382;2022-12-11T17:47:59;41.58;;;25.35;;
22060;SDS011;11194;48.092;-1.382;2022-12-11T17:50:25;46.38;;;28.17;;
22060;SDS011;11194;48.092;-1.382;2022-12-11T17:52:51;48.40;;;27.27;;
22060;SDS011;11194;48.092;-1.382;2022-12-11T17:55:17;44.95;;;26.88;;
22060;SDS011;11194;48.092;-1.382;2022-12-11T17:57:43;43.03;;;25.00;;
22060;SDS011;11194;48.092;-1.382;2022-12-11T18:00:09;42.13;;;24.45;;
22060;SDS011;11194;48.092;-1.382;2022-12-11T18:02:36;48.00;;;25.35;;
22060;SDS011;11194;48.092;-1.382;2022-12-11T18:05:02;41.40;;;22.85;;
22060;SDS011;11194;48.092;-1.382;2022-12-11T18:07:28;45.28;;;28.02;;
22060;SDS011;11194;48.092;-1.382;2022-12-11T18:09:54;47.05;;;25.85;;
22060;SDS011;11194;48.092;-1.382;2022-12-11T18:12:21;48.28;;;25.50;;
22060;SDS011;11194;48.092;-1.382;2022-12-11T18:14:47;44.75;;;25.45;;